Terminal Aerodrome Forecast
Issued by NWS

Home | Current Version | Previous Version | Text Only | Print | Product List | Glossary On
Versions: 1 2 3 4 5 6 7 8 9 10 11 12 13 14 15 16 17 18
000
FTUS43 KJKL 010538
TAFSME
TAF
KSME 010538Z 0106/0206 VRB05KT 1/2SM FG BKN001 OVC050
     FM010900 VRB03KT 3SM BR BKN005 OVC050
     FM011300 VRB05KT P6SM SCT010 BKN050=

USA.gov is the U.S. government's official web portal to all federal, state and local government web resources and services.